createdAt,value
2019-05-09T00:01:34.023Z,18.97
2019-05-09T00:04:00.519Z,16.97
2019-05-09T00:06:26.837Z,17.07
2019-05-09T00:08:53.405Z,17.67
2019-05-09T00:11:19.669Z,17.57
2019-05-09T00:13:46.011Z,18.47
2019-05-09T00:16:14.592Z,16.37
2019-05-09T00:18:40.621Z,18.50
2019-05-09T00:21:15.096Z,18.43
2019-05-09T00:23:43.587Z,17.00
2019-05-09T00:26:09.496Z,19.07
2019-05-09T00:28:37.848Z,17.90
2019-05-09T00:31:13.640Z,19.73
2019-05-09T00:33:43.982Z,18.90
2019-05-09T00:36:09.822Z,18.80
2019-05-09T00:38:37.937Z,19.27
2019-05-09T00:41:04.162Z,19.10
2019-05-09T00:43:30.389Z,20.00
2019-05-09T00:46:03.859Z,20.03
2019-05-09T00:48:33.700Z,16.37
2019-05-09T00:51:00.024Z,21.63
2019-05-09T00:53:26.246Z,17.47
2019-05-09T00:55:53.044Z,17.73
2019-05-09T00:58:20.294Z,17.87
2019-05-09T01:00:48.118Z,19.83
2019-05-09T01:03:14.505Z,17.77
2019-05-09T01:05:40.733Z,17.80
2019-05-09T01:08:08.875Z,17.27
2019-05-09T01:10:35.007Z,17.87
2019-05-09T01:13:03.440Z,19.23
2019-05-09T01:15:29.460Z,17.03
2019-05-09T01:17:55.559Z,16.57
2019-05-09T01:20:24.020Z,15.83
2019-05-09T01:22:50.042Z,17.60
2019-05-09T01:25:16.411Z,15.90
2019-05-09T01:27:43.194Z,14.80
2019-05-09T01:30:10.009Z,15.93
2019-05-09T01:32:50.312Z,14.23
2019-05-09T01:35:16.609Z,13.77
2019-05-09T01:37:43.377Z,13.30
2019-05-09T01:40:10.007Z,13.97
2019-05-09T01:42:36.163Z,14.27
2019-05-09T01:45:06.241Z,14.13
2019-05-09T01:47:34.136Z,13.67
2019-05-09T01:50:00.511Z,12.23
2019-05-09T01:52:26.861Z,15.23
2019-05-09T01:54:54.154Z,12.33
2019-05-09T01:57:20.501Z,13.00
2019-05-09T01:59:46.742Z,12.20
2019-05-09T02:02:14.213Z,10.90
2019-05-09T02:04:40.972Z,12.27
2019-05-09T02:07:07.580Z,14.37
2019-05-09T02:09:34.470Z,11.03
2019-05-09T02:12:00.915Z,13.77
2019-05-09T02:14:29.187Z,10.33
2019-05-09T02:16:57.373Z,12.03
2019-05-09T02:19:33.175Z,12.50
2019-05-09T02:22:00.703Z,13.23
2019-05-09T02:24:27.029Z,12.23
2019-05-09T02:26:53.489Z,13.57
2019-05-09T02:29:19.944Z,14.83
2019-05-09T02:31:46.190Z,12.67
2019-05-09T02:34:14.893Z,14.70
2019-05-09T02:36:40.544Z,11.50
2019-05-09T02:39:08.926Z,13.03
2019-05-09T02:41:34.930Z,11.27
2019-05-09T02:44:01.653Z,13.10
2019-05-09T02:46:33.037Z,11.57
2019-05-09T02:48:59.637Z,12.00
2019-05-09T02:51:28.985Z,12.90
2019-05-09T02:53:53.984Z,15.07
2019-05-09T02:56:20.112Z,14.63
2019-05-09T02:59:00.005Z,14.63
2019-05-09T03:01:30.687Z,15.77
2019-05-09T03:03:58.918Z,12.70
2019-05-09T03:06:28.134Z,15.17
2019-05-09T03:08:53.191Z,13.47
2019-05-09T03:11:19.336Z,15.07
2019-05-09T03:13:45.673Z,13.53
2019-05-09T03:16:13.776Z,14.63
2019-05-09T03:18:39.985Z,12.17
2019-05-09T03:21:11.234Z,14.60
2019-05-09T03:23:38.922Z,13.40
2019-05-09T03:26:09.146Z,13.10
2019-05-09T03:28:53.186Z,14.20
2019-05-09T03:31:21.224Z,13.20
2019-05-09T03:33:50.135Z,14.60
2019-05-09T03:36:18.013Z,13.40
2019-05-09T03:38:43.821Z,12.53
2019-05-09T03:41:11.144Z,13.97
2019-05-09T03:43:37.822Z,14.47
2019-05-09T03:46:08.882Z,13.37
2019-05-09T03:48:47.819Z,12.50
2019-05-09T03:51:15.409Z,13.23
2019-05-09T03:53:41.568Z,12.27
2019-05-09T03:56:09.726Z,14.83
2019-05-09T03:58:38.680Z,13.70
2019-05-09T04:01:05.405Z,12.60
2019-05-09T04:03:31.668Z,13.17
2019-05-09T04:06:02.530Z,14.27
2019-05-09T04:08:28.074Z,13.80
2019-05-09T04:10:54.181Z,14.83
2019-05-09T04:13:22.918Z,13.77
2019-05-09T04:15:49.290Z,13.33
2019-05-09T04:18:17.704Z,14.93
2019-05-09T04:20:43.986Z,15.20
2019-05-09T04:23:10.095Z,15.17
2019-05-09T04:25:38.151Z,14.67
2019-05-09T04:28:04.673Z,15.13
2019-05-09T04:30:30.933Z,15.40
2019-05-09T04:32:58.164Z,15.30
2019-05-09T04:35:24.508Z,14.53
2019-05-09T04:37:50.810Z,15.73
2019-05-09T04:40:17.781Z,13.83
2019-05-09T04:42:44.533Z,17.80
2019-05-09T04:45:21.689Z,13.60
2019-05-09T04:47:47.790Z,13.70
2019-05-09T04:50:15.291Z,17.37
2019-05-09T04:52:43.296Z,15.83
2019-05-09T04:55:10.657Z,15.20
2019-05-09T04:57:38.267Z,14.27
2019-05-09T05:00:07.568Z,16.17
2019-05-09T05:02:38.079Z,11.57
2019-05-09T05:05:04.925Z,13.27
2019-05-09T05:07:31.175Z,13.27
2019-05-09T05:09:57.679Z,13.43
2019-05-09T05:12:23.968Z,12.90
2019-05-09T05:14:50.225Z,14.43
2019-05-09T05:17:18.054Z,13.63
2019-05-09T05:19:44.508Z,15.00
2019-05-09T05:22:12.726Z,12.83
2019-05-09T05:24:48.722Z,12.47
2019-05-09T05:27:14.712Z,13.00
2019-05-09T05:29:41.055Z,15.30
2019-05-09T05:32:09.271Z,13.90
2019-05-09T05:34:41.383Z,15.23
2019-05-09T05:37:08.626Z,15.07
2019-05-09T05:39:37.353Z,14.00
2019-05-09T05:42:03.334Z,16.00
2019-05-09T05:44:29.615Z,12.80
2019-05-09T05:46:58.466Z,13.47
2019-05-09T05:49:24.944Z,15.83
2019-05-09T05:51:59.063Z,18.37
2019-05-09T05:54:27.799Z,12.67
2019-05-09T05:56:54.350Z,14.47
2019-05-09T05:59:20.892Z,12.43
2019-05-09T06:01:47.998Z,14.70
2019-05-09T06:04:14.635Z,11.47
2019-05-09T06:06:40.893Z,13.43
2019-05-09T06:09:08.265Z,12.33
2019-05-09T06:11:34.746Z,14.37
2019-05-09T06:14:08.323Z,14.47
2019-05-09T06:16:29.792Z,14.17
2019-05-09T06:18:58.632Z,13.00
2019-05-09T06:21:24.663Z,16.50
2019-05-09T06:23:51.016Z,14.03
2019-05-09T06:26:18.561Z,12.97
2019-05-09T06:28:45.103Z,15.13
2019-05-09T06:31:11.321Z,15.33
2019-05-09T06:33:45.065Z,15.47
2019-05-09T06:36:08.022Z,16.53
2019-05-09T06:38:34.371Z,15.90
2019-05-09T06:41:00.816Z,18.73
2019-05-09T06:43:29.181Z,19.60
2019-05-09T06:46:08.136Z,14.87
2019-05-09T06:48:37.720Z,14.13
2019-05-09T06:51:03.831Z,16.37
2019-05-09T06:53:30.154Z,14.37
2019-05-09T06:55:58.011Z,13.00
2019-05-09T06:58:30.916Z,13.43
2019-05-09T07:00:59.144Z,15.00
2019-05-09T07:03:39.454Z,14.53
2019-05-09T07:06:13.387Z,12.57
2019-05-09T07:08:44.157Z,13.20
2019-05-09T07:11:10.599Z,13.63
2019-05-09T07:13:38.178Z,12.13
2019-05-09T07:16:04.846Z,14.10
2019-05-09T07:18:31.086Z,11.47
2019-05-09T07:20:57.757Z,12.10
2019-05-09T07:23:24.208Z,10.57
2019-05-09T07:25:58.315Z,9.97
2019-05-09T07:28:28.143Z,11.37
2019-05-09T07:30:58.754Z,14.17
2019-05-09T07:33:27.838Z,12.10
2019-05-09T07:35:54.144Z,12.17
2019-05-09T07:38:30.663Z,13.07
2019-05-09T07:40:58.187Z,10.30
2019-05-09T07:43:24.358Z,11.47
2019-05-09T07:46:03.390Z,9.93
2019-05-09T07:48:40.642Z,11.07
2019-05-09T07:51:07.795Z,14.43
2019-05-09T07:53:34.689Z,8.83
2019-05-09T07:56:01.120Z,9.63
2019-05-09T07:58:28.387Z,10.60
2019-05-09T08:01:01.277Z,11.63
2019-05-09T08:03:27.568Z,10.63
2019-05-09T08:05:54.097Z,13.67
2019-05-09T08:08:20.402Z,12.33
2019-05-09T08:10:47.767Z,9.87
2019-05-09T08:13:13.999Z,11.57
2019-05-09T08:15:40.356Z,14.07
2019-05-09T08:18:08.453Z,11.53
2019-05-09T08:20:35.085Z,10.30
2019-05-09T08:23:02.282Z,9.57
2019-05-09T08:25:28.796Z,9.80
2019-05-09T08:27:55.217Z,13.63
2019-05-09T08:30:21.669Z,11.53
2019-05-09T08:32:48.406Z,10.07
2019-05-09T08:35:14.842Z,11.13
2019-05-09T08:37:40.975Z,9.50
2019-05-09T08:40:08.199Z,8.23
2019-05-09T08:42:34.668Z,12.23
2019-05-09T08:45:01.111Z,9.93
2019-05-09T08:47:27.834Z,11.50
2019-05-09T08:50:01.840Z,10.43
2019-05-09T08:52:29.383Z,12.67
2019-05-09T08:54:57.975Z,13.17
2019-05-09T08:57:24.335Z,10.07
2019-05-09T08:59:50.972Z,11.07
2019-05-09T09:02:21.985Z,9.37
2019-05-09T09:04:45.615Z,10.67
2019-05-09T09:07:11.888Z,12.33
2019-05-09T09:09:38.395Z,12.83
2019-05-09T09:12:21.129Z,10.57
2019-05-09T09:14:33.161Z,13.17
2019-05-09T09:16:59.402Z,10.50
2019-05-09T09:19:28.035Z,9.40
2019-05-09T09:21:57.349Z,12.77
2019-05-09T09:24:22.427Z,9.80
2019-05-09T09:26:48.681Z,10.83
2019-05-09T09:29:14.796Z,11.27
2019-05-09T09:31:42.194Z,12.03
2019-05-09T09:34:08.413Z,9.37
2019-05-09T09:36:34.607Z,10.80
2019-05-09T09:39:02.999Z,11.63
2019-05-09T09:41:29.054Z,13.13
2019-05-09T09:43:55.317Z,14.10
2019-05-09T09:46:21.670Z,9.03
2019-05-09T09:48:48.326Z,9.93
2019-05-09T09:51:14.737Z,11.77
2019-05-09T09:53:40.963Z,10.50
2019-05-09T09:56:08.650Z,12.17
2019-05-09T09:58:35.202Z,13.47
2019-05-09T10:01:09.444Z,8.53
2019-05-09T10:03:35.679Z,14.07
2019-05-09T10:06:02.003Z,11.77
2019-05-09T10:08:28.488Z,10.37
2019-05-09T10:10:54.840Z,9.93
2019-05-09T10:13:21.436Z,10.30
2019-05-09T10:15:49.452Z,12.27
2019-05-09T10:18:20.357Z,15.57
2019-05-09T10:20:48.643Z,9.77
2019-05-09T10:23:18.839Z,14.17
2019-05-09T10:25:43.174Z,13.23
2019-05-09T10:28:09.417Z,14.20
2019-05-09T10:30:38.000Z,11.13
2019-05-09T10:33:04.026Z,13.87
2019-05-09T10:35:30.369Z,12.10
2019-05-09T10:37:58.861Z,10.40
2019-05-09T10:40:25.249Z,12.40
2019-05-09T10:42:53.510Z,11.50
2019-05-09T10:45:41.071Z,13.37
2019-05-09T10:48:08.286Z,13.23
2019-05-09T10:50:35.154Z,11.10
2019-05-09T10:53:01.722Z,14.17
2019-05-09T10:55:28.426Z,11.97
2019-05-09T10:57:55.326Z,12.77
2019-05-09T11:00:21.793Z,12.20
2019-05-09T11:02:48.430Z,12.13
2019-05-09T11:05:18.279Z,14.00
2019-05-09T11:07:43.971Z,13.53
2019-05-09T11:10:24.505Z,14.47
2019-05-09T11:12:38.445Z,13.87
2019-05-09T11:15:09.133Z,14.23
2019-05-09T11:17:35.751Z,11.40
2019-05-09T11:20:08.437Z,13.37
2019-05-09T11:22:33.535Z,12.90
2019-05-09T11:25:00.158Z,12.20
2019-05-09T11:27:28.974Z,15.13
2019-05-09T11:29:54.775Z,12.00
2019-05-09T11:32:21.039Z,11.10
2019-05-09T11:34:48.615Z,12.50
2019-05-09T11:37:16.984Z,12.63
2019-05-09T11:39:43.307Z,11.13
2019-05-09T11:42:09.678Z,9.73
2019-05-09T11:44:38.400Z,12.40
2019-05-09T11:47:04.034Z,13.30
2019-05-09T11:49:30.446Z,12.67
2019-05-09T11:51:57.642Z,11.00
2019-05-09T11:54:24.095Z,9.67
2019-05-09T11:56:50.483Z,15.70
2019-05-09T11:59:18.923Z,8.67
2019-05-09T12:01:44.956Z,10.47
2019-05-09T12:04:11.203Z,11.60
2019-05-09T12:06:38.295Z,14.40
2019-05-09T12:09:08.653Z,11.17
2019-05-09T12:11:41.292Z,9.43
2019-05-09T12:14:04.364Z,10.17
2019-05-09T12:16:30.658Z,13.50
2019-05-09T12:18:58.347Z,11.33
2019-05-09T12:21:27.981Z,10.40
2019-05-09T12:23:53.539Z,8.20
2019-05-09T12:26:19.918Z,10.17
2019-05-09T12:28:48.354Z,11.13
2019-05-09T12:31:14.809Z,9.30
2019-05-09T12:33:41.512Z,8.90
2019-05-09T12:36:09.209Z,8.20
2019-05-09T12:38:38.889Z,12.23
2019-05-09T12:41:04.746Z,12.50
2019-05-09T12:43:32.203Z,10.37
2019-05-09T12:46:00.041Z,8.37
2019-05-09T12:48:27.900Z,7.40
2019-05-09T12:50:54.446Z,10.93
2019-05-09T12:53:20.901Z,8.93
2019-05-09T12:55:49.330Z,8.90
2019-05-09T12:58:27.865Z,10.80
2019-05-09T13:00:58.469Z,8.43
2019-05-09T13:03:27.693Z,8.67
2019-05-09T13:05:54.163Z,8.20
2019-05-09T13:08:20.505Z,5.30
2019-05-09T13:10:48.862Z,9.77
2019-05-09T13:13:15.272Z,11.10
2019-05-09T13:16:00.033Z,4.67
2019-05-09T13:18:29.696Z,4.30
2019-05-09T13:20:58.075Z,7.47
2019-05-09T13:23:24.162Z,9.07
2019-05-09T13:25:50.640Z,6.57
2019-05-09T13:28:17.598Z,5.67
2019-05-09T13:30:43.863Z,9.10
2019-05-09T13:33:11.020Z,6.97
2019-05-09T13:35:39.314Z,5.67
2019-05-09T13:38:08.534Z,7.30
2019-05-09T13:40:33.842Z,6.50
2019-05-09T13:43:00.118Z,4.07
2019-05-09T13:45:28.653Z,4.77
2019-05-09T13:47:54.612Z,5.37
2019-05-09T13:50:20.943Z,3.70
2019-05-09T13:52:48.043Z,3.97
2019-05-09T13:55:14.463Z,3.37
2019-05-09T13:57:40.909Z,3.60
2019-05-09T14:00:08.868Z,3.83
2019-05-09T14:02:35.204Z,4.60
2019-05-09T14:05:02.879Z,4.23
2019-05-09T14:07:29.259Z,2.63
2019-05-09T14:09:55.630Z,3.43
2019-05-09T14:12:21.947Z,4.60
2019-05-09T14:14:48.249Z,2.93
2019-05-09T14:17:14.625Z,6.93
2019-05-09T14:19:46.551Z,4.50
2019-05-09T14:22:09.397Z,4.33
2019-05-09T14:24:35.869Z,5.00
2019-05-09T14:27:02.304Z,2.97
2019-05-09T14:29:31.667Z,2.10
2019-05-09T14:31:56.785Z,2.47
2019-05-09T14:34:23.012Z,8.50
2019-05-09T14:36:49.695Z,6.37
2019-05-09T14:39:18.020Z,4.23
2019-05-09T14:41:47.068Z,2.23
2019-05-09T14:44:12.328Z,3.10
2019-05-09T14:46:39.320Z,6.40
2019-05-09T14:49:07.910Z,4.20
2019-05-09T14:51:34.194Z,6.23
2019-05-09T14:54:00.416Z,3.60
2019-05-09T14:56:27.987Z,6.40
2019-05-09T14:58:57.724Z,4.40
2019-05-09T15:01:24.677Z,4.67
2019-05-09T15:03:51.215Z,5.40
2019-05-09T15:06:18.362Z,6.07
2019-05-09T15:08:44.780Z,3.87
2019-05-09T15:11:10.972Z,5.07
2019-05-09T15:13:37.245Z,5.73
2019-05-09T15:16:03.582Z,5.37
2019-05-09T15:18:29.861Z,6.10
2019-05-09T15:20:58.132Z,4.73
2019-05-09T15:23:24.659Z,5.20
2019-05-09T15:25:50.909Z,2.43
2019-05-09T15:28:17.705Z,3.70
2019-05-09T15:30:44.007Z,1.87
2019-05-09T15:33:10.181Z,1.80
2019-05-09T15:35:38.850Z,3.63
2019-05-09T15:38:04.757Z,3.10
2019-05-09T15:40:31.038Z,5.73
2019-05-09T15:42:58.760Z,4.37
2019-05-09T15:45:28.576Z,4.37
2019-05-09T15:47:54.997Z,7.17
2019-05-09T15:50:23.278Z,5.27
2019-05-09T15:52:49.896Z,2.50
2019-05-09T15:55:17.713Z,3.57
2019-05-09T15:57:44.296Z,5.07
2019-05-09T16:00:12.441Z,2.30
2019-05-09T16:02:39.272Z,4.87
2019-05-09T16:05:10.061Z,2.33
2019-05-09T16:07:34.418Z,3.40
2019-05-09T16:10:00.856Z,4.43
2019-05-09T16:12:27.746Z,4.80
2019-05-09T16:14:54.151Z,3.23
2019-05-09T16:17:20.555Z,1.93
2019-05-09T16:19:48.302Z,3.57
2019-05-09T16:22:14.930Z,2.80
2019-05-09T16:24:41.253Z,2.63
2019-05-09T16:27:08.437Z,4.13
2019-05-09T16:29:34.989Z,4.03
2019-05-09T16:32:01.497Z,4.77
2019-05-09T16:34:28.307Z,4.47
2019-05-09T16:36:54.863Z,5.10
2019-05-09T16:39:21.324Z,3.37
2019-05-09T16:41:48.399Z,6.03
2019-05-09T16:44:15.035Z,4.90
2019-05-09T16:46:41.534Z,4.10
2019-05-09T16:49:11.724Z,3.57
2019-05-09T16:51:37.942Z,3.60
2019-05-09T16:54:04.484Z,6.33
2019-05-09T16:56:30.788Z,5.37
2019-05-09T16:58:57.830Z,2.73
2019-05-09T17:01:24.360Z,3.00
2019-05-09T17:03:50.688Z,4.50
2019-05-09T17:06:18.383Z,4.43
2019-05-09T17:08:44.821Z,4.10
2019-05-09T17:11:11.296Z,3.87
2019-05-09T17:13:37.543Z,5.63
2019-05-09T17:16:03.950Z,8.43
2019-05-09T17:18:30.503Z,6.10
2019-05-09T17:21:03.115Z,3.13
2019-05-09T17:23:29.637Z,3.53
2019-05-09T17:25:57.895Z,4.00
2019-05-09T17:28:24.650Z,4.37
2019-05-09T17:30:51.267Z,8.63
2019-05-09T17:33:17.608Z,7.17
2019-05-09T17:35:44.059Z,4.30
2019-05-09T17:38:11.485Z,3.17
2019-05-09T17:40:39.066Z,4.40
2019-05-09T17:43:08.260Z,5.70
2019-05-09T17:45:34.283Z,4.17
2019-05-09T17:48:00.568Z,4.60
2019-05-09T17:50:28.387Z,3.07
2019-05-09T17:52:54.833Z,5.07
2019-05-09T17:55:21.230Z,4.93
2019-05-09T17:57:48.029Z,4.93
2019-05-09T18:00:19.258Z,2.50
2019-05-09T18:02:43.292Z,4.67
2019-05-09T18:05:09.851Z,4.07
2019-05-09T18:07:37.720Z,3.87
2019-05-09T18:10:08.575Z,3.87
2019-05-09T18:12:38.251Z,3.40
2019-05-09T18:15:07.541Z,2.67
2019-05-09T18:17:34.122Z,5.47
2019-05-09T18:20:00.466Z,5.70
2019-05-09T18:22:26.993Z,3.50
2019-05-09T18:24:53.398Z,4.13
2019-05-09T18:27:19.662Z,3.53
2019-05-09T18:29:47.429Z,8.40
2019-05-09T18:32:27.984Z,7.47
2019-05-09T18:35:02.058Z,5.43
2019-05-09T18:37:28.473Z,4.93
2019-05-09T18:39:54.650Z,3.27
2019-05-09T18:42:20.931Z,6.63
2019-05-09T18:44:47.688Z,5.07
2019-05-09T18:47:14.478Z,4.67
2019-05-09T18:49:40.762Z,6.13
2019-05-09T18:52:07.143Z,6.00
2019-05-09T18:54:33.467Z,4.07
2019-05-09T18:56:59.740Z,5.13
2019-05-09T18:59:25.917Z,5.57
2019-05-09T19:01:52.267Z,7.63
2019-05-09T19:04:18.546Z,10.63
2019-05-09T19:06:46.611Z,6.53
2019-05-09T19:09:12.880Z,5.53
2019-05-09T19:11:39.585Z,5.10
2019-05-09T19:14:07.296Z,6.20
2019-05-09T19:16:48.348Z,7.60
2019-05-09T19:19:25.185Z,7.33
2019-05-09T19:21:56.003Z,8.33
2019-05-09T19:24:22.423Z,6.30
2019-05-09T19:26:48.807Z,8.77
2019-05-09T19:29:15.280Z,7.27
2019-05-09T19:31:42.099Z,15.40
2019-05-09T19:34:08.581Z,9.37
2019-05-09T19:36:35.247Z,8.53
2019-05-09T19:39:01.704Z,6.90
2019-05-09T19:41:29.220Z,6.57
2019-05-09T19:43:55.660Z,8.33
2019-05-09T19:46:22.024Z,9.33
2019-05-09T19:48:48.668Z,8.77
2019-05-09T19:51:16.251Z,7.00
2019-05-09T19:53:42.787Z,8.13
2019-05-09T19:56:11.631Z,7.60
2019-05-09T19:58:38.017Z,8.77
2019-05-09T20:01:04.610Z,9.53
2019-05-09T20:03:30.876Z,9.83
2019-05-09T20:05:57.434Z,9.47
2019-05-09T20:08:24.026Z,8.67
2019-05-09T20:10:55.078Z,9.07
2019-05-09T20:13:26.030Z,11.93
2019-05-09T20:15:52.492Z,10.60
2019-05-09T20:18:19.936Z,9.83
2019-05-09T20:20:46.276Z,10.77
2019-05-09T20:23:13.621Z,12.20
2019-05-09T20:25:40.079Z,10.83
2019-05-09T20:28:06.773Z,13.07
2019-05-09T20:30:33.389Z,13.57
2019-05-09T20:32:59.676Z,12.80
2019-05-09T20:35:26.281Z,11.87
2019-05-09T20:37:53.996Z,12.47
2019-05-09T20:40:20.295Z,12.47
2019-05-09T20:42:46.807Z,11.33
2019-05-09T20:45:13.174Z,15.33
2019-05-09T20:47:39.653Z,12.07
2019-05-09T20:50:06.790Z,12.87
2019-05-09T20:52:33.489Z,12.57
2019-05-09T20:55:00.395Z,12.30
2019-05-09T20:57:27.248Z,13.30
2019-05-09T20:59:53.799Z,14.77
2019-05-09T21:02:20.510Z,13.00
2019-05-09T21:04:47.155Z,12.63
2019-05-09T21:07:14.006Z,13.17
2019-05-09T21:09:41.048Z,12.80
2019-05-09T21:12:11.132Z,15.93
2019-05-09T21:14:37.925Z,14.63
2019-05-09T21:17:04.937Z,14.33
2019-05-09T21:19:31.307Z,13.47
2019-05-09T21:21:58.666Z,14.60
2019-05-09T21:24:25.009Z,13.23
2019-05-09T21:26:51.240Z,13.50
2019-05-09T21:29:17.566Z,13.07
2019-05-09T21:31:44.074Z,12.30
2019-05-09T21:34:10.338Z,13.70
2019-05-09T21:36:36.680Z,13.47
2019-05-09T21:39:05.144Z,13.30
2019-05-09T21:41:31.483Z,14.63
2019-05-09T21:43:57.781Z,14.80
2019-05-09T21:46:23.916Z,14.60
2019-05-09T21:48:50.322Z,15.07
2019-05-09T21:51:17.725Z,16.17
2019-05-09T21:53:44.125Z,16.07
2019-05-09T21:56:10.482Z,22.53
2019-05-09T21:58:36.761Z,25.67
2019-05-09T22:01:06.480Z,20.53
2019-05-09T22:03:33.020Z,21.10
2019-05-09T22:05:59.457Z,22.80
2019-05-09T22:08:25.993Z,23.70
2019-05-09T22:10:52.333Z,26.57
2019-05-09T22:13:18.752Z,24.33
2019-05-09T22:15:45.180Z,22.20
2019-05-09T22:18:13.465Z,21.97
2019-05-09T22:20:39.681Z,22.77
2019-05-09T22:23:06.738Z,25.13
2019-05-09T22:25:34.222Z,23.00
2019-05-09T22:28:00.759Z,23.77
2019-05-09T22:30:27.199Z,26.77
2019-05-09T22:32:53.453Z,28.00
2019-05-09T22:35:19.776Z,29.90
2019-05-09T22:37:45.924Z,32.13
2019-05-09T22:40:12.852Z,37.57
2019-05-09T22:42:39.176Z,37.90
2019-05-09T22:45:06.177Z,43.47
2019-05-09T22:47:32.500Z,48.07
2019-05-09T22:49:58.834Z,53.40
2019-05-09T22:52:25.136Z,57.97
2019-05-09T22:54:51.560Z,55.00
2019-05-09T22:57:17.906Z,51.77
2019-05-09T22:59:47.004Z,59.23
2019-05-09T23:02:13.308Z,52.33
2019-05-09T23:04:39.553Z,62.03
2019-05-09T23:07:06.038Z,57.10
2019-05-09T23:09:32.285Z,54.93
2019-05-09T23:11:58.528Z,55.13
2019-05-09T23:14:26.162Z,52.87
2019-05-09T23:16:52.498Z,52.47
2019-05-09T23:19:18.813Z,56.97
2019-05-09T23:21:45.511Z,52.37
2019-05-09T23:24:27.541Z,51.80
2019-05-09T23:26:42.047Z,54.97
2019-05-09T23:29:08.417Z,54.20
2019-05-09T23:31:42.503Z,49.13
2019-05-09T23:34:08.723Z,51.43
2019-05-09T23:36:35.097Z,46.07
2019-05-09T23:39:09.075Z,53.33
2019-05-09T23:41:35.390Z,52.97
2019-05-09T23:44:01.635Z,46.93
2019-05-09T23:46:27.739Z,49.77
2019-05-09T23:48:53.834Z,44.03
2019-05-09T23:51:20.067Z,50.53
2019-05-09T23:53:55.199Z,48.77
2019-05-09T23:56:39.937Z,50.00
2019-05-09T23:59:25.878Z,46.73
